createdAt,value
2022-11-08T00:01:02.731Z,10.00
2022-11-08T00:06:43.050Z,9.99
2022-11-08T00:12:24.039Z,9.96
2022-11-08T00:17:45.819Z,9.91
2022-11-08T00:23:07.574Z,9.82
2022-11-08T00:28:29.320Z,9.81
2022-11-08T00:33:51.064Z,9.81
2022-11-08T00:39:12.823Z,9.70
2022-11-08T00:44:35.195Z,9.71
2022-11-08T00:49:56.894Z,9.65
2022-11-08T00:55:18.659Z,9.58
2022-11-08T01:00:40.385Z,9.49
2022-11-08T01:06:05.416Z,9.35
2022-11-08T01:11:27.587Z,9.31
2022-11-08T01:16:49.302Z,9.16
2022-11-08T01:22:11.012Z,9.14
2022-11-08T01:27:32.777Z,9.23
2022-11-08T01:32:54.683Z,9.28
2022-11-08T01:38:16.822Z,8.93
2022-11-08T01:43:42.014Z,8.94
2022-11-08T01:49:12.834Z,8.97
2022-11-08T01:54:46.700Z,9.02
2022-11-08T02:00:12.411Z,9.08
2022-11-08T02:05:34.356Z,8.86
2022-11-08T02:10:56.234Z,8.93
2022-11-08T02:16:18.046Z,8.80
2022-11-08T02:21:51.550Z,8.56
2022-11-08T02:27:14.422Z,8.49
2022-11-08T02:32:41.083Z,8.40
2022-11-08T02:38:02.897Z,8.55
2022-11-08T02:43:25.952Z,8.61
2022-11-08T02:48:47.735Z,8.49
2022-11-08T02:54:09.448Z,8.54
2022-11-08T02:59:31.208Z,8.61
2022-11-08T03:04:52.928Z,8.56
2022-11-08T03:10:15.988Z,8.60
2022-11-08T03:15:37.780Z,8.29
2022-11-08T03:21:01.552Z,8.33
2022-11-08T03:26:23.287Z,8.28
2022-11-08T03:31:45.161Z,8.19
2022-11-08T03:37:08.968Z,8.27
2022-11-08T03:42:30.722Z,8.38
2022-11-08T03:47:52.451Z,8.40
2022-11-08T03:53:14.191Z,8.37
2022-11-08T03:58:35.968Z,8.45
2022-11-08T04:03:57.800Z,8.39
2022-11-08T04:09:21.687Z,8.31
2022-11-08T04:15:01.972Z,8.34
2022-11-08T04:20:42.208Z,8.06
2022-11-08T04:26:07.143Z,8.21
2022-11-08T04:31:28.948Z,8.19
2022-11-08T04:36:50.696Z,8.23
2022-11-08T04:42:12.396Z,8.27
2022-11-08T04:47:39.440Z,8.29
2022-11-08T04:53:03.487Z,8.34
2022-11-08T04:58:25.205Z,8.38
2022-11-08T05:03:48.647Z,8.23
2022-11-08T05:09:13.120Z,8.12
2022-11-08T05:14:34.847Z,8.04
2022-11-08T05:20:15.195Z,7.98
2022-11-08T05:25:40.273Z,7.72
2022-11-08T05:31:02.074Z,7.70
2022-11-08T05:36:23.786Z,7.75
2022-11-08T05:41:45.525Z,8.02
2022-11-08T05:47:07.273Z,8.08
2022-11-08T05:52:29.548Z,8.20
2022-11-08T05:57:51.395Z,8.20
2022-11-08T06:03:13.228Z,8.18
2022-11-08T06:08:35.226Z,8.07
2022-11-08T06:13:57.076Z,8.03
2022-11-08T06:19:18.888Z,7.90
2022-11-08T06:24:40.683Z,7.68
2022-11-08T06:30:04.230Z,7.87
2022-11-08T06:35:26.069Z,7.79
2022-11-08T06:40:47.930Z,7.71
2022-11-08T06:46:09.708Z,7.85
2022-11-08T06:51:31.622Z,7.91
2022-11-08T06:56:55.771Z,8.02
2022-11-08T07:02:18.813Z,8.11
2022-11-08T07:07:40.663Z,8.10
2022-11-08T07:13:11.032Z,8.09
2022-11-08T07:18:32.878Z,8.09
2022-11-08T07:23:54.701Z,8.20
2022-11-08T07:29:16.438Z,8.39
2022-11-08T07:34:38.170Z,8.60
2022-11-08T07:39:59.891Z,8.70
2022-11-08T07:45:21.607Z,8.80
2022-11-08T07:50:43.429Z,8.83
2022-11-08T07:56:05.355Z,8.83
2022-11-08T08:01:27.194Z,8.88
2022-11-08T08:06:48.939Z,8.77
2022-11-08T08:12:10.742Z,8.54
2022-11-08T08:17:32.453Z,8.50
2022-11-08T08:22:54.154Z,8.68
2022-11-08T08:28:15.997Z,8.74
2022-11-08T08:33:38.412Z,8.83
2022-11-08T08:39:00.368Z,9.05
2022-11-08T08:44:22.076Z,9.28
2022-11-08T08:49:43.891Z,9.48
2022-11-08T08:55:06.370Z,9.72
2022-11-08T09:06:10.158Z,10.12
2022-11-08T09:11:31.995Z,10.15
2022-11-08T09:16:54.208Z,10.15
2022-11-08T09:22:16.122Z,10.21
2022-11-08T09:27:37.869Z,10.24
2022-11-08T09:33:01.292Z,10.36
2022-11-08T09:38:24.119Z,10.53
2022-11-08T09:44:22.556Z,10.63
2022-11-08T09:50:12.090Z,10.67
2022-11-08T09:55:40.745Z,10.72
2022-11-08T10:01:03.852Z,10.76
2022-11-08T10:06:47.963Z,10.75
2022-11-08T10:12:25.254Z,10.91
2022-11-08T10:18:15.441Z,11.02
2022-11-08T10:23:45.593Z,11.10
2022-11-08T10:29:15.568Z,11.14
2022-11-08T10:34:46.473Z,11.23
2022-11-08T10:40:25.069Z,11.30
2022-11-08T10:45:46.821Z,11.40
2022-11-08T10:51:08.575Z,11.49
2022-11-08T10:56:32.982Z,11.65
2022-11-08T11:01:58.135Z,11.79
2022-11-08T11:07:35.320Z,11.91
2022-11-08T11:13:14.363Z,12.01
2022-11-08T11:18:52.782Z,12.06
2022-11-08T11:24:20.402Z,12.12
2022-11-08T11:29:42.543Z,12.18
2022-11-08T11:35:07.353Z,12.25
2022-11-08T11:40:44.082Z,12.31
2022-11-08T11:46:12.824Z,12.50
2022-11-08T11:51:34.671Z,12.65
2022-11-08T11:57:14.617Z,12.77
2022-11-08T12:03:04.280Z,12.94
2022-11-08T12:08:55.352Z,13.15
2022-11-08T12:14:35.515Z,13.34
2022-11-08T12:20:25.644Z,13.51
2022-11-08T12:26:02.750Z,13.95
2022-11-08T12:31:35.059Z,13.97
2022-11-08T12:37:04.866Z,14.39
2022-11-08T12:42:45.146Z,14.44
2022-11-08T12:48:28.589Z,14.56
2022-11-08T12:54:02.015Z,14.93
2022-11-08T13:00:02.516Z,14.92
2022-11-08T13:05:37.482Z,14.82
2022-11-08T13:11:04.800Z,14.68
2022-11-08T13:16:28.923Z,14.65
2022-11-08T13:21:51.771Z,14.88
2022-11-08T13:27:23.578Z,14.65
2022-11-08T13:33:14.865Z,14.57
2022-11-08T13:39:08.007Z,14.50
2022-11-08T13:44:54.800Z,14.49
2022-11-08T13:50:28.929Z,14.31
2022-11-08T13:56:17.405Z,14.38
2022-11-08T14:01:45.529Z,14.41
2022-11-08T14:07:24.971Z,14.52
2022-11-08T14:13:15.110Z,14.35
2022-11-08T14:18:39.203Z,14.25
2022-11-08T14:24:01.022Z,14.25
2022-11-08T14:29:24.883Z,14.22
2022-11-08T14:34:46.759Z,14.17
2022-11-08T14:40:17.550Z,14.08
2022-11-08T14:45:43.325Z,14.06
2022-11-08T14:51:06.228Z,14.04
2022-11-08T14:56:38.399Z,14.04
2022-11-08T15:02:00.313Z,14.02
2022-11-08T15:07:23.774Z,14.06
2022-11-08T15:12:45.636Z,14.06
2022-11-08T15:18:17.724Z,13.98
2022-11-08T15:23:42.299Z,13.93
2022-11-08T15:29:13.040Z,13.84
2022-11-08T15:34:39.520Z,13.81
2022-11-08T15:40:07.575Z,13.78
2022-11-08T15:45:35.695Z,13.73
2022-11-08T15:50:58.219Z,13.69
2022-11-08T15:56:20.337Z,13.57
2022-11-08T16:02:02.456Z,13.49
2022-11-08T16:07:24.227Z,13.46
2022-11-08T16:12:47.674Z,13.43
2022-11-08T16:18:10.204Z,13.37
2022-11-08T16:23:31.961Z,13.28
2022-11-08T16:28:53.688Z,13.20
2022-11-08T16:34:15.502Z,13.23
2022-11-08T16:39:37.217Z,13.23
2022-11-08T16:44:58.927Z,13.22
2022-11-08T16:50:25.947Z,13.20
2022-11-08T16:55:48.203Z,13.23
2022-11-08T17:01:31.536Z,13.13
2022-11-08T17:06:53.339Z,13.15
2022-11-08T17:12:15.105Z,13.14
2022-11-08T17:17:36.825Z,13.02
2022-11-08T17:22:58.558Z,12.99
2022-11-08T17:28:20.548Z,12.97
2022-11-08T17:33:43.265Z,12.98
2022-11-08T17:39:06.048Z,12.99
2022-11-08T17:44:29.428Z,13.01
2022-11-08T17:49:51.635Z,12.94
2022-11-08T17:55:13.377Z,12.94
2022-11-08T18:00:35.164Z,12.89
2022-11-08T18:05:59.353Z,12.84
2022-11-08T18:11:21.092Z,12.75
2022-11-08T18:16:42.996Z,12.69
2022-11-08T18:22:04.809Z,12.59
2022-11-08T18:27:26.591Z,12.54
2022-11-08T18:32:48.365Z,12.42
2022-11-08T18:38:12.008Z,12.39
2022-11-08T18:43:34.573Z,12.39
2022-11-08T18:48:56.476Z,12.38
2022-11-08T18:54:18.318Z,12.37
2022-11-08T18:59:40.034Z,12.28
2022-11-08T19:05:01.920Z,12.30
2022-11-08T19:10:23.648Z,12.29
2022-11-08T19:15:45.587Z,12.22
2022-11-08T19:21:12.157Z,12.18
2022-11-08T19:26:33.929Z,12.16
2022-11-08T19:31:55.640Z,12.14
2022-11-08T19:37:17.384Z,12.13
2022-11-08T19:42:39.175Z,12.25
2022-11-08T19:48:01.006Z,12.26
2022-11-08T19:53:22.799Z,12.30
2022-11-08T19:58:45.112Z,12.38
2022-11-08T20:04:09.462Z,12.33
2022-11-08T20:09:35.564Z,12.30
2022-11-08T20:14:58.040Z,12.24
2022-11-08T20:20:20.276Z,12.25
2022-11-08T20:25:42.161Z,12.28
2022-11-08T20:31:08.708Z,12.23
2022-11-08T20:36:34.874Z,12.23
2022-11-08T20:41:58.008Z,12.32
2022-11-08T20:47:20.421Z,12.29
2022-11-08T20:52:42.271Z,12.41
2022-11-08T20:58:03.982Z,12.39
2022-11-08T21:03:29.347Z,12.25
2022-11-08T21:09:02.681Z,12.12
2022-11-08T21:14:29.531Z,12.11
2022-11-08T21:19:51.857Z,12.14
2022-11-08T21:25:13.775Z,12.16
2022-11-08T21:30:36.068Z,12.11
2022-11-08T21:36:01.331Z,12.02
2022-11-08T21:41:23.144Z,12.02
2022-11-08T21:46:44.872Z,12.09
2022-11-08T21:52:06.719Z,12.12
2022-11-08T21:57:28.557Z,12.05
2022-11-08T22:02:51.554Z,11.99
2022-11-08T22:08:13.417Z,11.89
2022-11-08T22:13:35.272Z,11.87
2022-11-08T22:19:05.757Z,11.84
2022-11-08T22:24:28.046Z,11.78
2022-11-08T22:29:49.916Z,11.71
2022-11-08T22:35:11.610Z,11.69
2022-11-08T22:40:33.376Z,11.67
2022-11-08T22:45:55.115Z,11.64
2022-11-08T22:51:16.930Z,11.62
2022-11-08T22:56:40.150Z,11.65
2022-11-08T23:02:01.868Z,11.69
2022-11-08T23:07:23.584Z,11.72
2022-11-08T23:13:03.867Z,11.70
2022-11-08T23:18:27.188Z,11.68
2022-11-08T23:24:07.532Z,11.72
2022-11-08T23:29:47.643Z,11.76
2022-11-08T23:35:10.387Z,11.77
2022-11-08T23:40:50.819Z,11.87
2022-11-08T23:46:12.891Z,11.97
2022-11-08T23:51:34.617Z,12.01
2022-11-08T23:56:56.328Z,11.91
